createdAt,value
2023-05-17T00:00:07.509Z,92.10
2023-05-17T00:01:07.525Z,92.20
2023-05-17T00:02:07.523Z,92.20
2023-05-17T00:03:07.596Z,92.82
2023-05-17T00:04:07.620Z,92.86
2023-05-17T00:05:07.579Z,93.27
2023-05-17T00:06:07.725Z,93.93
2023-05-17T00:07:07.616Z,94.03
2023-05-17T00:08:07.716Z,94.13
2023-05-17T00:09:07.666Z,94.03
2023-05-17T00:10:07.684Z,94.65
2023-05-17T00:11:07.724Z,94.70
2023-05-17T00:12:07.690Z,94.70
2023-05-17T00:13:07.731Z,94.70
2023-05-17T00:14:07.728Z,94.80
2023-05-17T00:15:07.768Z,94.76
2023-05-17T00:16:07.785Z,94.85
2023-05-17T00:17:07.798Z,94.85
2023-05-17T00:18:07.868Z,94.65
2023-05-17T00:19:07.936Z,94.51
2023-05-17T00:20:07.906Z,94.40
2023-05-17T00:21:07.843Z,94.51
2023-05-17T00:22:07.882Z,94.30
2023-05-17T00:23:07.870Z,94.09
2023-05-17T00:24:07.978Z,93.99
2023-05-17T00:25:07.903Z,93.68
2023-05-17T00:26:07.927Z,93.79
2023-05-17T00:27:07.964Z,93.99
2023-05-17T00:28:07.953Z,94.92
2023-05-17T00:29:07.972Z,95.02
2023-05-17T00:30:07.999Z,95.33
2023-05-17T00:31:08.039Z,95.12
2023-05-17T00:32:08.047Z,95.06
2023-05-17T00:33:08.120Z,94.71
2023-05-17T00:34:08.084Z,94.81
2023-05-17T00:35:08.169Z,94.81
2023-05-17T00:36:08.091Z,94.51
2023-05-17T00:37:08.109Z,94.30
2023-05-17T00:38:08.133Z,94.60
2023-05-17T00:39:08.165Z,94.81
2023-05-17T00:40:08.299Z,94.60
2023-05-17T00:41:08.167Z,94.40
2023-05-17T00:42:08.195Z,94.81
2023-05-17T00:43:08.206Z,94.60
2023-05-17T00:44:08.222Z,95.02
2023-05-17T00:45:08.235Z,95.43
2023-05-17T00:46:08.315Z,94.60
2023-05-17T00:47:08.397Z,95.33
2023-05-17T00:48:08.443Z,94.92
2023-05-17T00:49:08.312Z,95.74
2023-05-17T00:50:08.327Z,95.23
2023-05-17T00:51:08.364Z,95.53
2023-05-17T00:52:08.365Z,95.64
2023-05-17T00:53:08.399Z,95.33
2023-05-17T00:54:08.388Z,95.64
2023-05-17T00:55:08.432Z,95.12
2023-05-17T00:56:08.535Z,95.53
2023-05-17T00:57:08.455Z,95.64
2023-05-17T00:58:08.455Z,95.64
2023-05-17T00:59:08.478Z,95.53
2023-05-17T01:00:08.493Z,95.84
2023-05-17T01:01:08.559Z,96.30
2023-05-17T01:02:08.561Z,96.61
2023-05-17T01:03:08.596Z,96.50
2023-05-17T01:04:08.710Z,96.56
2023-05-17T01:05:08.624Z,96.46
2023-05-17T01:06:08.586Z,96.25
2023-05-17T01:07:08.609Z,95.74
2023-05-17T01:08:08.621Z,95.95
2023-05-17T01:09:08.661Z,96.05
2023-05-17T01:10:08.658Z,96.36
2023-05-17T01:11:08.674Z,96.05
2023-05-17T01:12:08.822Z,96.56
2023-05-17T01:13:08.730Z,96.25
2023-05-17T01:14:08.764Z,95.74
2023-05-17T01:15:08.744Z,96.36
2023-05-17T01:16:08.751Z,96.46
2023-05-17T01:17:08.766Z,96.15
2023-05-17T01:18:08.869Z,96.36
2023-05-17T01:19:08.897Z,96.25
2023-05-17T01:20:09.273Z,96.56
2023-05-17T01:21:08.832Z,96.46
2023-05-17T01:22:08.861Z,96.36
2023-05-17T01:23:08.874Z,96.05
2023-05-17T01:24:08.929Z,96.25
2023-05-17T01:25:08.895Z,96.36
2023-05-17T01:26:08.914Z,96.67
2023-05-17T01:27:08.933Z,96.97
2023-05-17T01:28:09.047Z,96.88
2023-05-17T01:29:08.992Z,96.97
2023-05-17T01:30:09.013Z,97.23
2023-05-17T01:31:09.013Z,97.23
2023-05-17T01:32:09.012Z,96.97
2023-05-17T01:33:09.108Z,97.18
2023-05-17T01:34:09.052Z,96.81
2023-05-17T01:35:09.096Z,97.53
2023-05-17T01:36:09.090Z,97.43
2023-05-17T01:37:09.112Z,97.64
2023-05-17T01:38:09.113Z,97.49
2023-05-17T01:39:09.126Z,97.23
2023-05-17T01:40:09.189Z,97.13
2023-05-17T01:41:09.163Z,97.74
2023-05-17T01:42:09.175Z,98.25
2023-05-17T01:43:09.208Z,98.57
2023-05-17T01:44:09.284Z,98.25
2023-05-17T01:45:09.250Z,97.85
2023-05-17T01:46:09.242Z,97.85
2023-05-17T01:47:09.269Z,97.85
2023-05-17T01:48:09.361Z,98.77
2023-05-17T01:49:09.293Z,98.77
2023-05-17T01:50:09.315Z,98.67
2023-05-17T01:51:09.323Z,98.57
2023-05-17T01:52:09.344Z,98.15
2023-05-17T01:53:09.353Z,98.25
2023-05-17T01:54:09.374Z,98.57
2023-05-17T01:55:09.387Z,98.67
2023-05-17T01:56:09.401Z,98.77
2023-05-17T01:57:09.458Z,98.97
2023-05-17T01:58:09.436Z,98.88
2023-05-17T01:59:09.449Z,98.57
2023-05-17T02:00:09.610Z,98.61
2023-05-17T02:01:09.491Z,99.23
2023-05-17T02:02:09.545Z,98.57
2023-05-17T02:03:09.521Z,99.08
2023-05-17T02:04:09.717Z,99.08
2023-05-17T02:05:09.709Z,98.97
2023-05-17T02:06:09.566Z,99.13
2023-05-17T02:07:09.605Z,99.02
2023-05-17T02:08:09.597Z,99.54
2023-05-17T02:09:09.616Z,99.43
2023-05-17T02:10:09.630Z,99.43
2023-05-17T02:11:09.644Z,99.43
2023-05-17T02:12:09.704Z,99.54
2023-05-17T02:13:09.676Z,99.85
2023-05-17T02:14:09.693Z,99.43
2023-05-17T02:15:09.709Z,99.74
2023-05-17T02:16:09.885Z,99.80
2023-05-17T02:17:09.777Z,99.18
2023-05-17T02:18:09.881Z,99.33
2023-05-17T02:19:09.844Z,99.29
2023-05-17T02:20:09.807Z,98.88
2023-05-17T02:21:09.807Z,99.29
2023-05-17T02:22:09.824Z,99.18
2023-05-17T02:23:09.871Z,98.67
2023-05-17T02:24:09.858Z,99.18
2023-05-17T02:25:09.872Z,98.77
2023-05-17T02:26:09.892Z,99.08
2023-05-17T02:27:09.910Z,98.97
2023-05-17T02:28:09.971Z,98.88
2023-05-17T02:29:09.937Z,98.25
2023-05-17T02:30:09.955Z,98.46
2023-05-17T02:31:09.974Z,98.97
2023-05-17T02:32:10.113Z,98.97
2023-05-17T02:33:10.114Z,98.77
2023-05-17T02:34:10.020Z,98.52
2023-05-17T02:35:10.044Z,98.97
2023-05-17T02:36:10.052Z,98.15
2023-05-17T02:37:10.067Z,98.05
2023-05-17T02:38:10.118Z,97.85
2023-05-17T02:39:10.103Z,98.00
2023-05-17T02:40:10.113Z,98.36
2023-05-17T02:41:10.131Z,98.77
2023-05-17T02:42:10.151Z,98.97
2023-05-17T02:43:10.165Z,98.57
2023-05-17T02:44:10.179Z,99.08
2023-05-17T02:45:10.196Z,98.05
2023-05-17T02:46:10.272Z,99.08
2023-05-17T02:47:10.285Z,98.92
2023-05-17T02:48:10.426Z,98.36
2023-05-17T02:49:10.271Z,98.41
2023-05-17T02:50:10.288Z,99.13
2023-05-17T02:51:10.322Z,98.61
2023-05-17T02:52:10.337Z,98.92
2023-05-17T02:53:10.326Z,99.23
2023-05-17T02:54:10.339Z,98.61
2023-05-17T02:55:10.375Z,99.48
2023-05-17T02:56:10.401Z,99.99
2023-05-17T02:57:10.393Z,99.99
2023-05-17T02:58:10.405Z,99.38
2023-05-17T02:59:10.453Z,99.99
2023-05-17T03:00:10.442Z,99.99
2023-05-17T03:01:10.457Z,99.99
2023-05-17T03:02:10.474Z,99.99
2023-05-17T03:03:10.589Z,99.99
2023-05-17T03:04:10.838Z,99.99
2023-05-17T03:05:10.520Z,99.99
2023-05-17T03:06:10.534Z,99.99
2023-05-17T03:07:10.578Z,99.99
2023-05-17T03:08:10.594Z,99.69
2023-05-17T03:09:10.583Z,99.17
2023-05-17T03:10:10.604Z,99.90
2023-05-17T03:11:10.627Z,99.38
2023-05-17T03:12:10.652Z,99.90
2023-05-17T03:13:10.646Z,99.38
2023-05-17T03:14:10.688Z,99.48
2023-05-17T03:15:10.684Z,99.99
2023-05-17T03:16:10.694Z,99.99
2023-05-17T03:17:10.710Z,99.99
2023-05-17T03:18:10.797Z,99.79
2023-05-17T03:19:10.866Z,99.17
2023-05-17T03:20:10.840Z,99.99
2023-05-17T03:21:10.783Z,99.99
2023-05-17T03:22:10.790Z,99.99
2023-05-17T03:23:10.834Z,99.99
2023-05-17T03:24:10.820Z,99.99
2023-05-17T03:25:10.842Z,99.48
2023-05-17T03:26:10.900Z,99.99
2023-05-17T03:27:10.886Z,99.48
2023-05-17T03:28:10.888Z,99.99
2023-05-17T03:29:10.906Z,99.99
2023-05-17T03:30:10.929Z,99.99
2023-05-17T03:31:10.957Z,99.90
2023-05-17T03:32:10.951Z,99.99
2023-05-17T03:33:11.007Z,99.99
2023-05-17T03:34:11.032Z,99.99
2023-05-17T03:35:10.996Z,99.99
2023-05-17T03:36:11.228Z,99.99
2023-05-17T03:37:11.039Z,99.99
2023-05-17T03:38:11.042Z,99.99
2023-05-17T03:39:11.060Z,99.99
2023-05-17T03:40:11.080Z,99.94
2023-05-17T03:41:11.103Z,99.73
2023-05-17T03:42:11.115Z,99.99
2023-05-17T03:43:11.127Z,99.99
2023-05-17T03:44:11.140Z,99.99
2023-05-17T03:45:11.160Z,99.99
2023-05-17T03:46:11.171Z,99.99
2023-05-17T03:47:11.190Z,99.99
2023-05-17T03:48:11.234Z,99.99
2023-05-17T03:49:11.273Z,99.99
2023-05-17T03:50:11.234Z,99.99
2023-05-17T03:51:11.248Z,99.99
2023-05-17T03:52:11.361Z,99.99
2023-05-17T03:53:11.290Z,99.99
2023-05-17T03:54:11.299Z,99.99
2023-05-17T03:55:11.319Z,99.99
2023-05-17T03:56:11.335Z,99.99
2023-05-17T03:57:11.349Z,99.99
2023-05-17T03:58:11.363Z,99.99
2023-05-17T03:59:11.381Z,99.99
2023-05-17T04:00:11.403Z,99.99
2023-05-17T04:01:11.416Z,99.99
2023-05-17T04:02:11.454Z,99.99
2023-05-17T04:03:11.443Z,99.99
2023-05-17T04:04:11.486Z,99.94
2023-05-17T04:05:11.533Z,99.99
2023-05-17T04:06:11.514Z,99.99
2023-05-17T04:07:11.538Z,99.99
2023-05-17T04:08:12.254Z,99.99
2023-05-17T04:09:11.539Z,99.99
2023-05-17T04:10:11.559Z,99.99
2023-05-17T04:11:11.574Z,99.99
2023-05-17T04:12:11.617Z,99.99
2023-05-17T04:13:11.603Z,99.99
2023-05-17T04:14:11.624Z,99.99
2023-05-17T04:15:11.651Z,99.99
2023-05-17T04:16:11.667Z,99.99
2023-05-17T04:17:11.691Z,99.99
2023-05-17T04:18:11.779Z,99.99
2023-05-17T04:19:11.865Z,99.99
2023-05-17T04:20:11.722Z,99.99
2023-05-17T04:21:11.732Z,99.99
2023-05-17T04:22:11.806Z,99.99
2023-05-17T04:23:11.785Z,99.99
2023-05-17T04:24:11.865Z,99.99
2023-05-17T04:25:11.797Z,99.99
2023-05-17T04:26:11.814Z,99.99
2023-05-17T04:27:11.865Z,99.99
2023-05-17T04:28:11.856Z,99.99
2023-05-17T04:29:11.874Z,99.99
2023-05-17T04:30:11.874Z,99.99
2023-05-17T04:31:11.908Z,99.99
2023-05-17T04:32:11.911Z,99.48
2023-05-17T04:33:13.481Z,98.80
2023-05-17T04:34:12.032Z,98.76
2023-05-17T04:35:11.963Z,98.60
2023-05-17T04:36:11.972Z,98.19
2023-05-17T04:37:12.064Z,98.97
2023-05-17T04:38:12.005Z,97.94
2023-05-17T04:39:12.053Z,97.31
2023-05-17T04:40:12.139Z,97.73
2023-05-17T04:41:12.054Z,97.73
2023-05-17T04:42:12.072Z,97.48
2023-05-17T04:43:12.082Z,97.78
2023-05-17T04:44:12.133Z,96.75
2023-05-17T04:45:14.076Z,96.75
2023-05-17T04:46:12.132Z,97.27
2023-05-17T04:47:12.202Z,96.86
2023-05-17T04:48:12.268Z,96.75
2023-05-17T04:49:12.179Z,96.41
2023-05-17T04:50:12.222Z,97.33
2023-05-17T04:51:12.213Z,97.23
2023-05-17T04:52:12.238Z,95.27
2023-05-17T04:53:12.251Z,95.99
2023-05-17T04:54:12.261Z,95.06
2023-05-17T04:55:12.300Z,95.78
2023-05-17T04:56:12.378Z,96.05
2023-05-17T04:57:12.316Z,94.96
2023-05-17T04:58:12.325Z,95.68
2023-05-17T04:59:12.350Z,95.17
2023-05-17T05:00:12.356Z,94.30
2023-05-17T05:01:12.398Z,95.48
2023-05-17T05:02:12.386Z,94.13
2023-05-17T05:03:12.475Z,95.06
2023-05-17T05:04:12.495Z,94.60
2023-05-17T05:05:12.484Z,94.09
2023-05-17T05:06:12.477Z,93.58
2023-05-17T05:07:12.467Z,94.20
2023-05-17T05:08:12.491Z,93.88
2023-05-17T05:09:12.553Z,94.30
2023-05-17T05:10:12.533Z,92.24
2023-05-17T05:11:12.561Z,91.00
2023-05-17T05:12:12.671Z,91.06
2023-05-17T05:13:12.567Z,91.47
2023-05-17T05:14:12.596Z,91.27
2023-05-17T05:15:12.593Z,91.47
2023-05-17T05:16:12.647Z,91.17
2023-05-17T05:17:12.655Z,91.17
2023-05-17T05:18:12.798Z,91.17
2023-05-17T05:19:12.901Z,90.03
2023-05-17T05:20:12.686Z,89.83
2023-05-17T05:21:12.761Z,90.24
2023-05-17T05:22:12.716Z,90.86
2023-05-17T05:23:12.729Z,90.86
2023-05-17T05:24:12.744Z,91.47
2023-05-17T05:25:12.764Z,92.92
2023-05-17T05:26:12.806Z,91.99
2023-05-17T05:27:12.787Z,91.38
2023-05-17T05:28:12.980Z,91.47
2023-05-17T05:29:12.864Z,91.68
2023-05-17T05:30:12.840Z,93.02
2023-05-17T05:31:12.865Z,91.58
2023-05-17T05:32:12.897Z,92.10
2023-05-17T05:33:13.097Z,92.40
2023-05-17T05:34:12.934Z,93.33
2023-05-17T05:35:12.964Z,91.68
2023-05-17T05:36:12.968Z,91.06
2023-05-17T05:37:12.963Z,90.45
2023-05-17T05:38:12.991Z,90.86
2023-05-17T05:39:13.061Z,91.06
2023-05-17T05:40:13.004Z,91.38
2023-05-17T05:41:13.044Z,91.78
2023-05-17T05:42:13.045Z,91.38
2023-05-17T05:43:13.057Z,89.42
2023-05-17T05:44:13.336Z,90.34
2023-05-17T05:45:13.091Z,91.02
2023-05-17T05:46:13.146Z,90.34
2023-05-17T05:47:13.118Z,90.34
2023-05-17T05:48:13.220Z,91.27
2023-05-17T05:49:13.175Z,91.06
2023-05-17T05:50:13.170Z,90.96
2023-05-17T05:51:13.228Z,91.27
2023-05-17T05:52:13.204Z,91.38
2023-05-17T05:53:19.032Z,90.41
2023-05-17T05:54:13.241Z,91.44
2023-05-17T05:55:13.256Z,89.38
2023-05-17T05:56:13.303Z,89.07
2023-05-17T05:57:13.340Z,89.58
2023-05-17T05:58:13.385Z,89.58
2023-05-17T05:59:13.327Z,91.02
2023-05-17T06:00:13.433Z,89.28
2023-05-17T06:01:13.355Z,91.44
2023-05-17T06:02:13.399Z,87.52
2023-05-17T06:03:13.445Z,86.29
2023-05-17T06:04:13.415Z,83.11
2023-05-17T06:05:13.446Z,84.91
2023-05-17T06:06:13.523Z,84.40
2023-05-17T06:07:13.600Z,83.99
2023-05-17T06:08:13.473Z,81.62
2023-05-17T06:09:13.511Z,81.32
2023-05-17T06:10:13.509Z,80.60
2023-05-17T06:11:13.531Z,79.26
2023-05-17T06:12:13.608Z,78.37
2023-05-17T06:13:13.559Z,80.22
2023-05-17T06:14:13.581Z,80.84
2023-05-17T06:15:13.599Z,81.93
2023-05-17T06:16:13.797Z,81.42
2023-05-17T06:17:13.705Z,81.93
2023-05-17T06:18:13.754Z,82.14
2023-05-17T06:19:13.729Z,77.82
2023-05-17T06:20:13.711Z,76.38
2023-05-17T06:21:13.693Z,78.23
2023-05-17T06:22:13.711Z,77.51
2023-05-17T06:23:13.797Z,78.54
2023-05-17T06:24:13.752Z,77.89
2023-05-17T06:25:13.761Z,77.58
2023-05-17T06:26:13.780Z,78.20
2023-05-17T06:27:13.796Z,77.78
2023-05-17T06:28:13.840Z,77.65
2023-05-17T06:29:13.856Z,76.62
2023-05-17T06:30:13.873Z,75.80
2023-05-17T06:31:13.882Z,76.21
2023-05-17T06:32:14.013Z,76.55
2023-05-17T06:33:14.063Z,77.48
2023-05-17T06:34:14.050Z,78.92
2023-05-17T06:35:13.947Z,78.47
2023-05-17T06:36:13.955Z,78.36
2023-05-17T06:37:14.100Z,76.82
2023-05-17T06:38:13.981Z,77.30
2023-05-17T06:39:14.022Z,78.88
2023-05-17T06:40:16.741Z,79.91
2023-05-17T06:41:14.033Z,78.57
2023-05-17T06:42:14.049Z,78.78
2023-05-17T06:43:14.094Z,79.33
2023-05-17T06:44:14.093Z,78.96
2023-05-17T06:45:14.109Z,79.98
2023-05-17T06:46:14.118Z,80.80
2023-05-17T06:47:14.152Z,80.19
2023-05-17T06:48:14.415Z,80.29
2023-05-17T06:49:14.172Z,79.98
2023-05-17T06:50:14.189Z,80.80
2023-05-17T06:51:14.215Z,80.60
2023-05-17T06:52:14.222Z,80.97
2023-05-17T06:53:14.257Z,80.46
2023-05-17T06:54:14.256Z,78.50
2023-05-17T06:55:14.273Z,79.94
2023-05-17T06:56:14.289Z,79.98
2023-05-17T06:57:14.306Z,78.75
2023-05-17T06:58:14.338Z,78.20
2023-05-17T06:59:14.349Z,77.62
2023-05-17T07:00:14.358Z,76.48
2023-05-17T07:01:14.372Z,75.39
2023-05-17T07:02:14.408Z,76.18
2023-05-17T07:03:14.443Z,77.20
2023-05-17T07:04:14.779Z,77.10
2023-05-17T07:05:14.475Z,76.59
2023-05-17T07:06:14.467Z,76.21
2023-05-17T07:07:14.480Z,75.59
2023-05-17T07:08:14.498Z,75.49
2023-05-17T07:09:14.509Z,74.98
2023-05-17T07:10:14.581Z,76.21
2023-05-17T07:11:14.550Z,75.70
2023-05-17T07:12:14.563Z,75.39
2023-05-17T07:13:14.578Z,78.17
2023-05-17T07:14:14.612Z,76.21
2023-05-17T07:15:14.666Z,78.47
2023-05-17T07:16:14.635Z,75.18
2023-05-17T07:17:14.656Z,74.70
2023-05-17T07:18:14.786Z,76.31
2023-05-17T07:19:14.749Z,75.39
2023-05-17T07:20:14.913Z,74.46
2023-05-17T07:21:14.720Z,73.95
2023-05-17T07:22:14.771Z,71.48
2023-05-17T07:23:14.757Z,71.79
2023-05-17T07:24:14.769Z,72.41
2023-05-17T07:25:14.788Z,74.12
2023-05-17T07:26:14.822Z,72.55
2023-05-17T07:27:14.844Z,70.66
2023-05-17T07:28:14.863Z,70.56
2023-05-17T07:29:15.807Z,70.76
2023-05-17T07:30:14.875Z,68.71
2023-05-17T07:31:14.892Z,70.01
2023-05-17T07:32:14.905Z,68.51
2023-05-17T07:33:15.020Z,67.99
2023-05-17T07:34:14.962Z,68.78
2023-05-17T07:35:14.968Z,68.68
2023-05-17T07:36:15.260Z,69.91
2023-05-17T07:37:14.991Z,71.31
2023-05-17T07:38:15.012Z,69.06
2023-05-17T07:39:15.023Z,68.41
2023-05-17T07:40:15.066Z,68.44
2023-05-17T07:41:15.059Z,69.98
2023-05-17T07:42:15.086Z,70.90
2023-05-17T07:43:15.104Z,69.95
2023-05-17T07:44:15.155Z,69.81
2023-05-17T07:45:15.129Z,68.82
2023-05-17T07:46:15.190Z,68.65
2023-05-17T07:47:15.384Z,69.95
2023-05-17T07:48:15.434Z,69.95
2023-05-17T07:49:15.236Z,70.26
2023-05-17T07:50:15.217Z,68.03
2023-05-17T07:51:15.266Z,68.81
2023-05-17T07:52:15.293Z,68.40
2023-05-17T07:53:15.321Z,69.32
2023-05-17T07:54:16.808Z,70.87
2023-05-17T07:55:16.932Z,70.46
2023-05-17T07:56:15.324Z,68.51
2023-05-17T07:57:15.345Z,67.89
2023-05-17T07:58:15.560Z,68.10
2023-05-17T07:59:15.391Z,69.19
2023-05-17T08:00:15.554Z,70.63
2023-05-17T08:01:15.414Z,69.06
2023-05-17T08:02:15.430Z,70.22
2023-05-17T08:03:17.242Z,70.42
2023-05-17T08:04:15.505Z,68.78
2023-05-17T08:05:15.502Z,68.68
2023-05-17T08:06:15.551Z,69.09
2023-05-17T08:07:15.521Z,70.53
2023-05-17T08:08:15.681Z,72.38
2023-05-17T08:09:15.556Z,69.81
2023-05-17T08:10:15.573Z,70.32
2023-05-17T08:11:15.602Z,69.50
2023-05-17T08:12:15.616Z,68.48
2023-05-17T08:13:15.683Z,71.35
2023-05-17T08:14:15.692Z,68.48
2023-05-17T08:15:15.693Z,70.12
2023-05-17T08:16:15.696Z,70.84
2023-05-17T08:17:15.697Z,70.29
2023-05-17T08:18:15.779Z,70.50
2023-05-17T08:19:15.786Z,68.34
2023-05-17T08:20:15.784Z,68.54
2023-05-17T08:21:15.765Z,71.21
2023-05-17T08:22:15.789Z,70.18
2023-05-17T08:23:15.807Z,69.16
2023-05-17T08:24:15.842Z,70.36
2023-05-17T08:25:15.861Z,69.02
2023-05-17T08:26:15.903Z,68.10
2023-05-17T08:27:15.873Z,68.21
2023-05-17T08:28:15.888Z,67.49
2023-05-17T08:29:15.906Z,66.25
2023-05-17T08:30:27.885Z,65.10
2023-05-17T08:31:16.162Z,66.43
2023-05-17T08:32:15.972Z,66.33
2023-05-17T08:33:16.058Z,66.97
2023-05-17T08:34:16.053Z,65.44
2023-05-17T08:35:16.035Z,66.12
2023-05-17T08:36:16.037Z,66.36
2023-05-17T08:37:16.104Z,68.17
2023-05-17T08:38:17.022Z,65.44
2023-05-17T08:39:16.087Z,67.66
2023-05-17T08:40:16.198Z,65.78
2023-05-17T08:41:16.141Z,64.25
2023-05-17T08:42:16.139Z,65.27
2023-05-17T08:43:16.227Z,62.61
2023-05-17T08:44:16.241Z,64.45
2023-05-17T08:45:16.195Z,64.25
2023-05-17T08:46:16.212Z,65.89
2023-05-17T08:47:16.370Z,64.45
2023-05-17T08:48:16.354Z,65.61
2023-05-17T08:49:16.378Z,66.02
2023-05-17T08:50:16.300Z,64.38
2023-05-17T08:51:16.343Z,65.61
2023-05-17T08:52:16.365Z,66.22
2023-05-17T08:53:16.494Z,66.33
2023-05-17T08:54:16.403Z,64.69
2023-05-17T08:55:16.600Z,65.41
2023-05-17T08:56:16.683Z,66.30
2023-05-17T08:57:16.460Z,67.52
2023-05-17T08:58:16.480Z,68.62
2023-05-17T08:59:16.586Z,66.37
2023-05-17T09:00:16.531Z,66.67
2023-05-17T09:01:16.532Z,66.47
2023-05-17T09:02:16.582Z,64.04
2023-05-17T09:03:16.724Z,63.35
2023-05-17T09:04:16.619Z,65.20
2023-05-17T09:05:16.740Z,67.05
2023-05-17T09:06:16.654Z,66.02
2023-05-17T09:07:17.363Z,66.94
2023-05-17T09:08:16.658Z,68.48
2023-05-17T09:09:16.682Z,66.74
2023-05-17T09:10:16.761Z,68.68
2023-05-17T09:11:16.717Z,68.48
2023-05-17T09:12:16.760Z,68.65
2023-05-17T09:13:16.830Z,66.63
2023-05-17T09:14:16.772Z,67.05
2023-05-17T09:15:16.918Z,66.53
2023-05-17T09:16:16.811Z,66.77
2023-05-17T09:17:16.826Z,67.79
2023-05-17T09:18:19.390Z,66.74
2023-05-17T09:19:17.249Z,65.17
2023-05-17T09:20:16.904Z,62.61
2023-05-17T09:21:16.976Z,63.02
2023-05-17T09:22:16.917Z,64.83
2023-05-17T09:23:16.942Z,63.17
2023-05-17T09:24:17.000Z,62.73
2023-05-17T09:25:16.982Z,62.42
2023-05-17T09:26:17.095Z,63.18
2023-05-17T09:27:17.023Z,62.16
2023-05-17T09:28:17.088Z,61.18
2023-05-17T09:29:17.068Z,58.73
2023-05-17T09:30:17.088Z,57.43
2023-05-17T09:31:17.186Z,58.20
2023-05-17T09:32:17.138Z,57.58
2023-05-17T09:33:18.768Z,55.54
2023-05-17T09:34:17.119Z,57.07
2023-05-17T09:35:17.147Z,57.48
2023-05-17T09:36:17.173Z,57.58
2023-05-17T09:37:17.206Z,58.70
2023-05-17T09:38:17.235Z,59.73
2023-05-17T09:39:17.233Z,59.55
2023-05-17T09:40:17.248Z,57.94
2023-05-17T09:41:17.284Z,58.25
2023-05-17T09:42:17.319Z,60.10
2023-05-17T09:43:17.347Z,58.04
2023-05-17T09:44:17.363Z,60.99
2023-05-17T09:45:17.380Z,59.14
2023-05-17T09:46:17.381Z,59.88
2023-05-17T09:47:17.399Z,57.53
2023-05-17T09:48:17.553Z,56.61
2023-05-17T09:49:17.510Z,57.32
2023-05-17T09:50:17.464Z,58.52
2023-05-17T09:51:17.482Z,58.32
2023-05-17T09:52:17.508Z,60.13
2023-05-17T09:53:17.590Z,58.98
2023-05-17T09:54:17.552Z,58.09
2023-05-17T09:55:17.582Z,58.03
2023-05-17T09:56:17.595Z,57.21
2023-05-17T09:57:17.619Z,54.49
2023-05-17T09:58:17.700Z,55.79
2023-05-17T09:59:17.696Z,52.42
2023-05-17T10:00:17.695Z,54.11
2023-05-17T10:01:17.717Z,54.23
2023-05-17T10:02:17.728Z,54.85
2023-05-17T10:03:17.854Z,57.48
2023-05-17T10:04:17.771Z,56.45
2023-05-17T10:05:17.826Z,57.20
2023-05-17T10:06:28.193Z,57.32
2023-05-17T10:07:17.842Z,57.45
2023-05-17T10:08:17.888Z,58.29
2023-05-17T10:09:17.902Z,58.70
2023-05-17T10:10:17.905Z,59.83
2023-05-17T10:11:17.935Z,56.61
2023-05-17T10:12:17.955Z,58.66
2023-05-17T10:13:18.035Z,59.48
2023-05-17T10:14:17.992Z,59.09
2023-05-17T10:15:18.052Z,58.93
2023-05-17T10:16:18.044Z,56.53
2023-05-17T10:17:18.055Z,56.40
2023-05-17T10:18:18.202Z,54.79
2023-05-17T10:19:18.169Z,55.02
2023-05-17T10:20:18.173Z,54.79
2023-05-17T10:21:18.143Z,58.87
2023-05-17T10:22:23.239Z,56.02
2023-05-17T10:23:18.187Z,55.28
2023-05-17T10:24:18.261Z,56.94
2023-05-17T10:25:18.234Z,59.00
2023-05-17T10:26:18.257Z,58.55
2023-05-17T10:27:18.287Z,59.47
2023-05-17T10:28:18.343Z,59.09
2023-05-17T10:29:18.436Z,58.91
2023-05-17T10:30:18.490Z,62.70
2023-05-17T10:31:18.408Z,59.47
2023-05-17T10:32:18.457Z,60.26
2023-05-17T10:33:18.556Z,57.84
2023-05-17T10:34:18.644Z,60.90
2023-05-17T10:35:18.540Z,61.21
2023-05-17T10:36:18.477Z,59.98
2023-05-17T10:37:18.499Z,59.50
2023-05-17T10:38:20.435Z,58.70
2023-05-17T10:39:18.547Z,59.01
2023-05-17T10:40:18.573Z,59.96
2023-05-17T10:41:18.582Z,60.88
2023-05-17T10:42:18.601Z,60.78
2023-05-17T10:43:18.664Z,59.01
2023-05-17T10:44:18.648Z,61.26
2023-05-17T10:45:18.661Z,60.21
2023-05-17T10:46:18.700Z,58.65
2023-05-17T10:47:18.706Z,59.57
2023-05-17T10:48:18.824Z,58.65
2023-05-17T10:49:20.384Z,58.14
2023-05-17T10:50:18.780Z,59.14
2023-05-17T10:51:18.794Z,56.99
2023-05-17T10:52:18.834Z,56.58
2023-05-17T10:53:18.825Z,56.27
2023-05-17T10:54:18.893Z,56.04
2023-05-17T10:55:18.865Z,56.04
2023-05-17T10:56:18.897Z,55.41
2023-05-17T10:57:18.907Z,57.52
2023-05-17T10:58:18.946Z,56.50
2023-05-17T10:59:18.979Z,55.18
2023-05-17T11:00:18.970Z,57.17
2023-05-17T11:01:18.990Z,59.14
2023-05-17T11:02:19.035Z,59.98
2023-05-17T11:03:19.044Z,57.86
2023-05-17T11:04:19.098Z,59.30
2023-05-17T11:05:19.082Z,58.37
2023-05-17T11:06:23.509Z,57.53
2023-05-17T11:07:19.148Z,56.68
2023-05-17T11:08:19.135Z,56.73
2023-05-17T11:09:19.151Z,55.18
2023-05-17T11:10:19.181Z,54.39
2023-05-17T11:11:19.258Z,58.16
2023-05-17T11:12:19.213Z,54.49
2023-05-17T11:13:19.238Z,55.26
2023-05-17T11:14:19.265Z,58.80
2023-05-17T11:15:19.288Z,57.48
2023-05-17T11:16:19.324Z,57.78
2023-05-17T11:17:19.328Z,58.95
2023-05-17T11:18:29.490Z,58.97
2023-05-17T11:19:19.394Z,56.40
2023-05-17T11:20:19.585Z,54.64
2023-05-17T11:21:19.406Z,53.47
2023-05-17T11:22:19.456Z,53.32
2023-05-17T11:23:19.480Z,54.79
2023-05-17T11:24:22.020Z,55.05
2023-05-17T11:25:19.492Z,54.24
2023-05-17T11:26:19.521Z,52.17
2023-05-17T11:27:19.570Z,54.11
2023-05-17T11:28:19.565Z,56.35
2023-05-17T11:29:19.590Z,55.87
2023-05-17T11:30:19.610Z,56.07
2023-05-17T11:31:19.635Z,58.01
2023-05-17T11:32:19.682Z,57.29
2023-05-17T11:33:29.720Z,57.53
2023-05-17T11:34:19.754Z,59.67
2023-05-17T11:35:19.725Z,59.98
2023-05-17T11:36:19.799Z,61.61
2023-05-17T11:37:19.796Z,59.47
2023-05-17T11:38:19.796Z,60.21
2023-05-17T11:39:19.820Z,58.55
2023-05-17T11:40:19.829Z,57.25
2023-05-17T11:42:19.880Z,57.09
2023-05-17T11:43:19.901Z,56.27
2023-05-17T11:44:19.914Z,55.69
2023-05-17T11:45:19.965Z,56.99
2023-05-17T11:46:19.975Z,56.86
2023-05-17T11:47:20.010Z,55.84
2023-05-17T11:48:20.097Z,56.56
2023-05-17T11:49:34.311Z,56.94
2023-05-17T11:50:20.068Z,56.94
2023-05-17T11:51:21.996Z,59.49
2023-05-17T11:52:20.092Z,56.89
2023-05-17T11:53:20.107Z,56.79
2023-05-17T11:54:20.125Z,56.51
2023-05-17T11:55:20.180Z,57.45
2023-05-17T11:56:24.098Z,57.68
2023-05-17T11:57:20.190Z,57.07
2023-05-17T11:58:20.216Z,58.68
2023-05-17T11:59:20.230Z,58.45
2023-05-17T12:00:20.304Z,59.23
2023-05-17T12:01:20.279Z,54.44
2023-05-17T12:02:20.292Z,56.99
2023-05-17T12:03:20.321Z,56.68
2023-05-17T12:04:20.376Z,61.32
2023-05-17T12:05:20.395Z,55.13
2023-05-17T12:06:20.414Z,55.74
2023-05-17T12:07:20.399Z,57.07
2023-05-17T12:08:20.427Z,57.65
2023-05-17T12:09:20.436Z,59.08
2023-05-17T12:10:20.483Z,57.04
2023-05-17T12:11:20.475Z,58.23
2023-05-17T12:12:20.719Z,55.58
2023-05-17T12:13:20.519Z,54.49
2023-05-17T12:14:20.589Z,55.51
2023-05-17T12:15:20.576Z,56.96
2023-05-17T12:16:20.594Z,55.97
2023-05-17T12:17:20.628Z,55.66
2023-05-17T12:18:20.940Z,56.48
2023-05-17T12:19:20.809Z,56.25
2023-05-17T12:20:20.752Z,54.41
2023-05-17T12:21:20.681Z,53.98
2023-05-17T12:22:20.757Z,54.67
2023-05-17T12:23:20.729Z,55.28
2023-05-17T12:24:20.798Z,54.90
2023-05-17T12:25:20.763Z,56.45
2023-05-17T12:26:20.797Z,56.56
2023-05-17T12:27:20.838Z,58.67
2023-05-17T12:28:20.837Z,58.41
2023-05-17T12:29:20.847Z,54.85
2023-05-17T12:30:20.914Z,55.84
2023-05-17T12:31:20.895Z,57.62
2023-05-17T12:32:20.921Z,55.89
2023-05-17T12:33:21.083Z,54.90
2023-05-17T12:34:20.963Z,58.31
2023-05-17T12:35:21.004Z,57.21
2023-05-17T12:36:20.998Z,58.14
2023-05-17T12:37:21.051Z,55.76
2023-05-17T12:38:21.044Z,53.70
2023-05-17T12:39:21.067Z,54.54
2023-05-17T12:40:21.124Z,55.26
2023-05-17T12:41:21.104Z,56.17
2023-05-17T12:42:21.128Z,58.18
2023-05-17T12:43:21.151Z,54.64
2023-05-17T12:44:21.193Z,56.48
2023-05-17T12:45:21.250Z,54.87
2023-05-17T12:46:21.220Z,54.90
2023-05-17T12:47:21.270Z,55.10
2023-05-17T12:48:21.277Z,56.25
2023-05-17T12:49:21.369Z,56.25
2023-05-17T12:50:21.333Z,56.86
2023-05-17T12:51:21.324Z,55.33
2023-05-17T12:52:21.353Z,55.74
2023-05-17T12:53:21.371Z,54.95